Terminal Aerodrome Forecast
Issued by NWS

Home | Current Version | Previous Version | Graphics & Text | Print | Product List | Glossary On
Versions: 1 2 3 4 5 6 7 8 9 10 11 12 13 14
719
FTUS43 KGRB 061734
TAFMTW
TAF
KMTW 061734Z 0618/0718 27011KT P6SM OVC017
     FM062100 23008KT P6SM OVC012
     FM070300 20006KT P6SM BKN014 OVC100
     FM070700 20008KT P6SM BKN100
     FM071200 22011G15KT P6SM BKN060 OVC090=

USA.gov is the U.S. government's official web portal to all federal, state and local government web resources and services.